sensor_id;sensor_type;location;lat;lon;timestamp;P1;durP1;ratioP1;P2;durP2;ratioP2
5135;SDS011;2586;48.710;9.202;2022-12-07T00:01:39;8.97;;;7.30;;
5135;SDS011;2586;48.710;9.202;2022-12-07T00:04:06;13.33;;;7.80;;
5135;SDS011;2586;48.710;9.202;2022-12-07T00:06:36;8.37;;;6.70;;
5135;SDS011;2586;48.710;9.202;2022-12-07T00:09:03;7.13;;;5.60;;
5135;SDS011;2586;48.710;9.202;2022-12-07T00:11:30;9.20;;;6.20;;
5135;SDS011;2586;48.710;9.202;2022-12-07T00:13:58;7.70;;;5.83;;
5135;SDS011;2586;48.710;9.202;2022-12-07T00:16:26;6.20;;;5.60;;
5135;SDS011;2586;48.710;9.202;2022-12-07T00:18:53;7.40;;;6.30;;
5135;SDS011;2586;48.710;9.202;2022-12-07T00:21:20;9.27;;;6.27;;
5135;SDS011;2586;48.710;9.202;2022-12-07T00:23:48;9.60;;;7.23;;
5135;SDS011;2586;48.710;9.202;2022-12-07T00:26:16;10.07;;;7.10;;
5135;SDS011;2586;48.710;9.202;2022-12-07T00:28:47;12.30;;;6.07;;
5135;SDS011;2586;48.710;9.202;2022-12-07T00:31:15;14.33;;;7.60;;
5135;SDS011;2586;48.710;9.202;2022-12-07T00:33:42;11.03;;;6.30;;
5135;SDS011;2586;48.710;9.202;2022-12-07T00:36:11;11.80;;;7.60;;
5135;SDS011;2586;48.710;9.202;2022-12-07T00:38:42;8.90;;;7.20;;
5135;SDS011;2586;48.710;9.202;2022-12-07T00:41:12;10.63;;;6.80;;
5135;SDS011;2586;48.710;9.202;2022-12-07T00:43:39;11.00;;;6.23;;
5135;SDS011;2586;48.710;9.202;2022-12-07T00:46:05;7.37;;;6.57;;
5135;SDS011;2586;48.710;9.202;2022-12-07T00:48:31;10.30;;;8.10;;
5135;SDS011;2586;48.710;9.202;2022-12-07T00:50:57;8.00;;;6.20;;
5135;SDS011;2586;48.710;9.202;2022-12-07T00:53:23;11.73;;;6.80;;
5135;SDS011;2586;48.710;9.202;2022-12-07T00:55:49;9.90;;;7.27;;
5135;SDS011;2586;48.710;9.202;2022-12-07T00:58:15;11.03;;;7.50;;
5135;SDS011;2586;48.710;9.202;2022-12-07T01:00:41;8.27;;;7.07;;
5135;SDS011;2586;48.710;9.202;2022-12-07T01:03:08;12.53;;;7.67;;
5135;SDS011;2586;48.710;9.202;2022-12-07T01:05:35;10.77;;;7.77;;
5135;SDS011;2586;48.710;9.202;2022-12-07T01:08:01;9.53;;;7.50;;
5135;SDS011;2586;48.710;9.202;2022-12-07T01:10:27;16.20;;;8.60;;
5135;SDS011;2586;48.710;9.202;2022-12-07T01:12:55;7.90;;;6.93;;
5135;SDS011;2586;48.710;9.202;2022-12-07T01:15:21;9.97;;;7.27;;
5135;SDS011;2586;48.710;9.202;2022-12-07T01:17:46;15.93;;;8.53;;
5135;SDS011;2586;48.710;9.202;2022-12-07T01:20:12;10.27;;;7.60;;
5135;SDS011;2586;48.710;9.202;2022-12-07T01:22:38;11.33;;;8.47;;
5135;SDS011;2586;48.710;9.202;2022-12-07T01:25:06;12.33;;;8.80;;
5135;SDS011;2586;48.710;9.202;2022-12-07T01:27:33;14.07;;;9.13;;
5135;SDS011;2586;48.710;9.202;2022-12-07T01:30:00;11.10;;;7.60;;
5135;SDS011;2586;48.710;9.202;2022-12-07T01:32:26;12.67;;;8.10;;
5135;SDS011;2586;48.710;9.202;2022-12-07T01:34:52;11.37;;;8.27;;
5135;SDS011;2586;48.710;9.202;2022-12-07T01:37:18;14.40;;;8.87;;
5135;SDS011;2586;48.710;9.202;2022-12-07T01:39:43;12.07;;;8.73;;
5135;SDS011;2586;48.710;9.202;2022-12-07T01:42:10;11.57;;;8.30;;
5135;SDS011;2586;48.710;9.202;2022-12-07T01:47:38;14.40;;;9.47;;
5135;SDS011;2586;48.710;9.202;2022-12-07T01:50:04;15.40;;;10.07;;
5135;SDS011;2586;48.710;9.202;2022-12-07T01:52:31;10.13;;;8.80;;
5135;SDS011;2586;48.710;9.202;2022-12-07T01:55:09;12.40;;;9.37;;
5135;SDS011;2586;48.710;9.202;2022-12-07T01:57:38;13.63;;;8.70;;
5135;SDS011;2586;48.710;9.202;2022-12-07T02:00:07;13.77;;;10.00;;
5135;SDS011;2586;48.710;9.202;2022-12-07T02:02:35;13.27;;;10.23;;
5135;SDS011;2586;48.710;9.202;2022-12-07T02:05:04;14.17;;;8.87;;
5135;SDS011;2586;48.710;9.202;2022-12-07T02:07:31;13.70;;;9.33;;
5135;SDS011;2586;48.710;9.202;2022-12-07T02:10:15;13.17;;;9.80;;
5135;SDS011;2586;48.710;9.202;2022-12-07T02:12:43;13.40;;;9.97;;
5135;SDS011;2586;48.710;9.202;2022-12-07T02:15:12;13.43;;;9.17;;
5135;SDS011;2586;48.710;9.202;2022-12-07T02:17:46;12.87;;;8.80;;
5135;SDS011;2586;48.710;9.202;2022-12-07T02:28:34;11.67;;;9.10;;
5135;SDS011;2586;48.710;9.202;2022-12-07T02:31:04;16.07;;;9.43;;
5135;SDS011;2586;48.710;9.202;2022-12-07T02:33:40;15.70;;;10.17;;
5135;SDS011;2586;48.710;9.202;2022-12-07T02:36:37;13.37;;;8.47;;
5135;SDS011;2586;48.710;9.202;2022-12-07T02:39:17;16.13;;;9.90;;
5135;SDS011;2586;48.710;9.202;2022-12-07T02:42:07;13.10;;;9.10;;
5135;SDS011;2586;48.710;9.202;2022-12-07T02:44:40;14.13;;;9.97;;
5135;SDS011;2586;48.710;9.202;2022-12-07T02:47:07;14.77;;;9.00;;
5135;SDS011;2586;48.710;9.202;2022-12-07T02:49:37;16.90;;;9.60;;
5135;SDS011;2586;48.710;9.202;2022-12-07T02:52:04;14.40;;;10.67;;
5135;SDS011;2586;48.710;9.202;2022-12-07T02:54:30;15.27;;;9.93;;
5135;SDS011;2586;48.710;9.202;2022-12-07T03:00:08;13.80;;;8.63;;
5135;SDS011;2586;48.710;9.202;2022-12-07T03:02:53;14.70;;;9.30;;
5135;SDS011;2586;48.710;9.202;2022-12-07T03:16:22;13.90;;;8.83;;
5135;SDS011;2586;48.710;9.202;2022-12-07T03:19:03;13.30;;;8.70;;
5135;SDS011;2586;48.710;9.202;2022-12-07T03:21:40;14.23;;;8.50;;
5135;SDS011;2586;48.710;9.202;2022-12-07T03:24:11;10.57;;;7.43;;
5135;SDS011;2586;48.710;9.202;2022-12-07T03:26:53;15.20;;;8.57;;
5135;SDS011;2586;48.710;9.202;2022-12-07T03:29:28;14.53;;;8.80;;
5135;SDS011;2586;48.710;9.202;2022-12-07T03:32:01;14.10;;;7.47;;
5135;SDS011;2586;48.710;9.202;2022-12-07T03:34:39;14.10;;;9.23;;
5135;SDS011;2586;48.710;9.202;2022-12-07T03:37:26;19.13;;;11.03;;
5135;SDS011;2586;48.710;9.202;2022-12-07T03:42:31;11.10;;;8.30;;
5135;SDS011;2586;48.710;9.202;2022-12-07T03:44:58;19.50;;;10.60;;
5135;SDS011;2586;48.710;9.202;2022-12-07T03:47:42;16.17;;;8.73;;
5135;SDS011;2586;48.710;9.202;2022-12-07T03:50:26;16.10;;;9.83;;
5135;SDS011;2586;48.710;9.202;2022-12-07T03:52:57;13.30;;;7.97;;
5135;SDS011;2586;48.710;9.202;2022-12-07T03:55:29;14.10;;;8.90;;
5135;SDS011;2586;48.710;9.202;2022-12-07T03:58:09;15.67;;;8.67;;
5135;SDS011;2586;48.710;9.202;2022-12-07T04:00:37;12.90;;;9.07;;
5135;SDS011;2586;48.710;9.202;2022-12-07T04:03:03;11.87;;;8.60;;
5135;SDS011;2586;48.710;9.202;2022-12-07T04:05:28;13.20;;;9.60;;
5135;SDS011;2586;48.710;9.202;2022-12-07T04:07:54;12.40;;;9.10;;
5135;SDS011;2586;48.710;9.202;2022-12-07T04:10:20;15.70;;;8.57;;
5135;SDS011;2586;48.710;9.202;2022-12-07T04:12:46;15.83;;;9.80;;
5135;SDS011;2586;48.710;9.202;2022-12-07T04:15:11;11.53;;;8.60;;
5135;SDS011;2586;48.710;9.202;2022-12-07T04:17:37;13.07;;;8.97;;
5135;SDS011;2586;48.710;9.202;2022-12-07T04:20:03;17.17;;;9.40;;
5135;SDS011;2586;48.710;9.202;2022-12-07T04:22:30;13.97;;;9.27;;
5135;SDS011;2586;48.710;9.202;2022-12-07T04:24:55;17.70;;;9.80;;
5135;SDS011;2586;48.710;9.202;2022-12-07T04:27:21;13.10;;;9.23;;
5135;SDS011;2586;48.710;9.202;2022-12-07T04:29:46;13.60;;;9.70;;
5135;SDS011;2586;48.710;9.202;2022-12-07T04:32:12;14.97;;;10.10;;
5135;SDS011;2586;48.710;9.202;2022-12-07T04:34:37;11.43;;;8.93;;
5135;SDS011;2586;48.710;9.202;2022-12-07T04:37:03;11.77;;;8.80;;
5135;SDS011;2586;48.710;9.202;2022-12-07T04:39:29;13.30;;;9.23;;
5135;SDS011;2586;48.710;9.202;2022-12-07T04:41:56;12.33;;;9.03;;
5135;SDS011;2586;48.710;9.202;2022-12-07T04:44:24;11.70;;;8.90;;
5135;SDS011;2586;48.710;9.202;2022-12-07T04:46:51;14.03;;;8.97;;
5135;SDS011;2586;48.710;9.202;2022-12-07T04:49:17;14.33;;;8.63;;
5135;SDS011;2586;48.710;9.202;2022-12-07T04:51:43;11.90;;;8.40;;
5135;SDS011;2586;48.710;9.202;2022-12-07T04:54:09;15.90;;;8.13;;
5135;SDS011;2586;48.710;9.202;2022-12-07T04:56:35;11.00;;;7.30;;
5135;SDS011;2586;48.710;9.202;2022-12-07T04:59:01;13.53;;;7.43;;
5135;SDS011;2586;48.710;9.202;2022-12-07T05:01:27;10.00;;;6.07;;
5135;SDS011;2586;48.710;9.202;2022-12-07T05:03:53;7.37;;;5.60;;
5135;SDS011;2586;48.710;9.202;2022-12-07T05:06:19;7.60;;;5.90;;
5135;SDS011;2586;48.710;9.202;2022-12-07T05:08:45;4.27;;;3.87;;
5135;SDS011;2586;48.710;9.202;2022-12-07T05:11:11;5.33;;;4.00;;
5135;SDS011;2586;48.710;9.202;2022-12-07T05:14:00;5.83;;;4.07;;
5135;SDS011;2586;48.710;9.202;2022-12-07T05:16:27;5.30;;;3.80;;
5135;SDS011;2586;48.710;9.202;2022-12-07T05:18:53;5.47;;;4.17;;
5135;SDS011;2586;48.710;9.202;2022-12-07T05:21:19;4.53;;;3.63;;
5135;SDS011;2586;48.710;9.202;2022-12-07T05:23:45;4.13;;;3.70;;
5135;SDS011;2586;48.710;9.202;2022-12-07T05:26:10;4.10;;;3.70;;
5135;SDS011;2586;48.710;9.202;2022-12-07T05:28:36;3.93;;;3.63;;
5135;SDS011;2586;48.710;9.202;2022-12-07T05:31:02;3.43;;;3.13;;
5135;SDS011;2586;48.710;9.202;2022-12-07T05:33:28;3.80;;;2.70;;
5135;SDS011;2586;48.710;9.202;2022-12-07T05:35:53;4.33;;;3.43;;
5135;SDS011;2586;48.710;9.202;2022-12-07T05:38:19;5.50;;;3.60;;
5135;SDS011;2586;48.710;9.202;2022-12-07T05:40:44;5.63;;;4.43;;
5135;SDS011;2586;48.710;9.202;2022-12-07T05:43:10;7.10;;;4.40;;
5135;SDS011;2586;48.710;9.202;2022-12-07T05:45:36;5.20;;;4.40;;
5135;SDS011;2586;48.710;9.202;2022-12-07T05:48:01;8.23;;;4.90;;
5135;SDS011;2586;48.710;9.202;2022-12-07T05:50:27;7.17;;;5.20;;
5135;SDS011;2586;48.710;9.202;2022-12-07T05:52:53;10.83;;;6.90;;
5135;SDS011;2586;48.710;9.202;2022-12-07T05:55:19;6.50;;;5.40;;
5135;SDS011;2586;48.710;9.202;2022-12-07T05:57:44;6.80;;;5.13;;
5135;SDS011;2586;48.710;9.202;2022-12-07T06:00:30;7.73;;;5.13;;
5135;SDS011;2586;48.710;9.202;2022-12-07T06:02:55;10.67;;;5.43;;
5135;SDS011;2586;48.710;9.202;2022-12-07T06:05:21;7.73;;;4.77;;
5135;SDS011;2586;48.710;9.202;2022-12-07T06:07:47;5.47;;;4.47;;
5135;SDS011;2586;48.710;9.202;2022-12-07T06:10:12;6.37;;;4.63;;
5135;SDS011;2586;48.710;9.202;2022-12-07T06:12:38;7.03;;;4.67;;
5135;SDS011;2586;48.710;9.202;2022-12-07T06:15:04;5.07;;;4.37;;
5135;SDS011;2586;48.710;9.202;2022-12-07T06:17:30;11.50;;;4.80;;
5135;SDS011;2586;48.710;9.202;2022-12-07T06:19:56;8.87;;;4.90;;
5135;SDS011;2586;48.710;9.202;2022-12-07T06:22:22;8.10;;;6.20;;
5135;SDS011;2586;48.710;9.202;2022-12-07T06:24:47;7.43;;;4.83;;
5135;SDS011;2586;48.710;9.202;2022-12-07T06:27:13;4.83;;;4.23;;
5135;SDS011;2586;48.710;9.202;2022-12-07T06:29:39;6.33;;;4.93;;
5135;SDS011;2586;48.710;9.202;2022-12-07T06:32:04;6.00;;;5.00;;
5135;SDS011;2586;48.710;9.202;2022-12-07T06:34:30;7.07;;;5.33;;
5135;SDS011;2586;48.710;9.202;2022-12-07T06:36:56;7.77;;;4.87;;
5135;SDS011;2586;48.710;9.202;2022-12-07T06:39:22;7.63;;;4.87;;
5135;SDS011;2586;48.710;9.202;2022-12-07T06:41:51;5.80;;;4.67;;
5135;SDS011;2586;48.710;9.202;2022-12-07T06:44:17;6.00;;;5.03;;
5135;SDS011;2586;48.710;9.202;2022-12-07T06:46:43;7.93;;;4.60;;
5135;SDS011;2586;48.710;9.202;2022-12-07T06:49:09;7.70;;;4.90;;
5135;SDS011;2586;48.710;9.202;2022-12-07T06:51:35;6.57;;;5.40;;
5135;SDS011;2586;48.710;9.202;2022-12-07T06:54:02;8.40;;;5.43;;
5135;SDS011;2586;48.710;9.202;2022-12-07T06:56:28;6.93;;;5.13;;
5135;SDS011;2586;48.710;9.202;2022-12-07T06:58:54;8.50;;;5.70;;
5135;SDS011;2586;48.710;9.202;2022-12-07T07:01:20;11.93;;;5.87;;
5135;SDS011;2586;48.710;9.202;2022-12-07T07:03:45;8.30;;;4.93;;
5135;SDS011;2586;48.710;9.202;2022-12-07T07:06:12;7.70;;;5.47;;
5135;SDS011;2586;48.710;9.202;2022-12-07T07:08:38;7.90;;;5.37;;
5135;SDS011;2586;48.710;9.202;2022-12-07T07:11:05;11.13;;;5.77;;
5135;SDS011;2586;48.710;9.202;2022-12-07T07:13:31;17.67;;;7.13;;
5135;SDS011;2586;48.710;9.202;2022-12-07T07:15:57;6.87;;;5.33;;
5135;SDS011;2586;48.710;9.202;2022-12-07T07:18:23;12.50;;;6.23;;
5135;SDS011;2586;48.710;9.202;2022-12-07T07:20:50;13.20;;;6.80;;
5135;SDS011;2586;48.710;9.202;2022-12-07T07:23:16;8.60;;;6.37;;
5135;SDS011;2586;48.710;9.202;2022-12-07T07:25:42;9.83;;;7.17;;
5135;SDS011;2586;48.710;9.202;2022-12-07T07:28:07;9.63;;;6.87;;
5135;SDS011;2586;48.710;9.202;2022-12-07T07:30:33;8.13;;;6.27;;
5135;SDS011;2586;48.710;9.202;2022-12-07T07:32:59;9.90;;;7.00;;
5135;SDS011;2586;48.710;9.202;2022-12-07T07:35:26;9.50;;;6.97;;
5135;SDS011;2586;48.710;9.202;2022-12-07T07:37:52;9.70;;;7.20;;
5135;SDS011;2586;48.710;9.202;2022-12-07T07:40:18;9.40;;;6.77;;
5135;SDS011;2586;48.710;9.202;2022-12-07T07:42:46;11.63;;;6.53;;
5135;SDS011;2586;48.710;9.202;2022-12-07T07:45:13;12.63;;;7.90;;
5135;SDS011;2586;48.710;9.202;2022-12-07T07:47:38;9.90;;;7.73;;
5135;SDS011;2586;48.710;9.202;2022-12-07T07:50:04;11.37;;;7.37;;
5135;SDS011;2586;48.710;9.202;2022-12-07T07:52:30;13.00;;;7.27;;
5135;SDS011;2586;48.710;9.202;2022-12-07T07:54:56;11.03;;;7.70;;
5135;SDS011;2586;48.710;9.202;2022-12-07T07:57:21;10.10;;;6.90;;
5135;SDS011;2586;48.710;9.202;2022-12-07T07:59:47;10.20;;;7.30;;
5135;SDS011;2586;48.710;9.202;2022-12-07T08:02:14;12.50;;;8.37;;
5135;SDS011;2586;48.710;9.202;2022-12-07T08:04:41;13.00;;;8.20;;
5135;SDS011;2586;48.710;9.202;2022-12-07T08:07:07;13.10;;;9.23;;
5135;SDS011;2586;48.710;9.202;2022-12-07T08:09:32;11.40;;;7.40;;
5135;SDS011;2586;48.710;9.202;2022-12-07T08:11:58;9.17;;;7.43;;
5135;SDS011;2586;48.710;9.202;2022-12-07T08:14:23;16.07;;;8.53;;
5135;SDS011;2586;48.710;9.202;2022-12-07T08:16:49;9.47;;;7.27;;
5135;SDS011;2586;48.710;9.202;2022-12-07T08:19:15;10.80;;;7.50;;
5135;SDS011;2586;48.710;9.202;2022-12-07T08:21:41;11.63;;;8.27;;
5135;SDS011;2586;48.710;9.202;2022-12-07T08:24:06;13.43;;;8.30;;
5135;SDS011;2586;48.710;9.202;2022-12-07T08:26:32;10.00;;;7.40;;
5135;SDS011;2586;48.710;9.202;2022-12-07T08:28:58;14.17;;;8.80;;
5135;SDS011;2586;48.710;9.202;2022-12-07T08:31:24;13.27;;;8.67;;
5135;SDS011;2586;48.710;9.202;2022-12-07T08:33:50;17.27;;;8.13;;
5135;SDS011;2586;48.710;9.202;2022-12-07T08:36:16;11.50;;;7.37;;
5135;SDS011;2586;48.710;9.202;2022-12-07T08:38:42;14.20;;;7.80;;
5135;SDS011;2586;48.710;9.202;2022-12-07T08:41:07;11.90;;;7.80;;
5135;SDS011;2586;48.710;9.202;2022-12-07T08:43:33;12.67;;;7.67;;
5135;SDS011;2586;48.710;9.202;2022-12-07T08:48:40;10.67;;;6.50;;
5135;SDS011;2586;48.710;9.202;2022-12-07T08:51:09;11.47;;;6.10;;
5135;SDS011;2586;48.710;9.202;2022-12-07T08:53:35;13.00;;;7.00;;
5135;SDS011;2586;48.710;9.202;2022-12-07T08:56:03;10.87;;;7.47;;
5135;SDS011;2586;48.710;9.202;2022-12-07T08:58:29;11.43;;;6.13;;
5135;SDS011;2586;48.710;9.202;2022-12-07T09:00:55;12.40;;;7.90;;
5135;SDS011;2586;48.710;9.202;2022-12-07T09:03:21;9.77;;;6.63;;
5135;SDS011;2586;48.710;9.202;2022-12-07T09:05:46;12.53;;;5.87;;
5135;SDS011;2586;48.710;9.202;2022-12-07T09:08:12;8.17;;;5.40;;
5135;SDS011;2586;48.710;9.202;2022-12-07T09:10:37;8.87;;;5.53;;
5135;SDS011;2586;48.710;9.202;2022-12-07T09:13:03;8.77;;;6.00;;
5135;SDS011;2586;48.710;9.202;2022-12-07T09:15:29;10.63;;;5.70;;
5135;SDS011;2586;48.710;9.202;2022-12-07T09:17:56;15.03;;;5.87;;
5135;SDS011;2586;48.710;9.202;2022-12-07T09:20:21;8.03;;;4.50;;
5135;SDS011;2586;48.710;9.202;2022-12-07T09:22:47;8.40;;;5.20;;
5135;SDS011;2586;48.710;9.202;2022-12-07T09:25:13;8.67;;;4.83;;
5135;SDS011;2586;48.710;9.202;2022-12-07T09:27:39;10.10;;;6.30;;
5135;SDS011;2586;48.710;9.202;2022-12-07T09:30:04;8.77;;;6.10;;
5135;SDS011;2586;48.710;9.202;2022-12-07T09:32:30;7.50;;;5.40;;
5135;SDS011;2586;48.710;9.202;2022-12-07T09:34:56;7.37;;;5.30;;
5135;SDS011;2586;48.710;9.202;2022-12-07T09:37:22;7.07;;;5.40;;
5135;SDS011;2586;48.710;9.202;2022-12-07T09:39:47;6.30;;;4.40;;
5135;SDS011;2586;48.710;9.202;2022-12-07T09:42:19;8.63;;;5.00;;
5135;SDS011;2586;48.710;9.202;2022-12-07T09:44:49;7.40;;;5.27;;
5135;SDS011;2586;48.710;9.202;2022-12-07T09:47:15;6.60;;;4.67;;
5135;SDS011;2586;48.710;9.202;2022-12-07T09:49:40;6.00;;;4.47;;
5135;SDS011;2586;48.710;9.202;2022-12-07T09:54:39;5.30;;;4.43;;
5135;SDS011;2586;48.710;9.202;2022-12-07T09:57:08;6.97;;;4.43;;
5135;SDS011;2586;48.710;9.202;2022-12-07T09:59:37;8.07;;;4.57;;
5135;SDS011;2586;48.710;9.202;2022-12-07T10:04:50;10.40;;;4.57;;
5135;SDS011;2586;48.710;9.202;2022-12-07T10:07:15;7.80;;;4.83;;
5135;SDS011;2586;48.710;9.202;2022-12-07T10:09:41;14.10;;;4.93;;
5135;SDS011;2586;48.710;9.202;2022-12-07T10:12:09;6.93;;;4.17;;
5135;SDS011;2586;48.710;9.202;2022-12-07T10:14:40;8.33;;;4.63;;
5135;SDS011;2586;48.710;9.202;2022-12-07T10:17:32;6.60;;;5.10;;
5135;SDS011;2586;48.710;9.202;2022-12-07T10:20:13;7.47;;;4.83;;
5135;SDS011;2586;48.710;9.202;2022-12-07T10:22:54;8.77;;;4.20;;
5135;SDS011;2586;48.710;9.202;2022-12-07T10:25:26;9.37;;;4.73;;
5135;SDS011;2586;48.710;9.202;2022-12-07T10:27:57;5.63;;;4.60;;
5135;SDS011;2586;48.710;9.202;2022-12-07T10:30:32;5.97;;;4.03;;
5135;SDS011;2586;48.710;9.202;2022-12-07T10:32:58;7.00;;;4.23;;
5135;SDS011;2586;48.710;9.202;2022-12-07T10:35:28;5.27;;;4.30;;
5135;SDS011;2586;48.710;9.202;2022-12-07T10:37:56;7.27;;;4.50;;
5135;SDS011;2586;48.710;9.202;2022-12-07T10:40:29;7.30;;;4.40;;
5135;SDS011;2586;48.710;9.202;2022-12-07T10:45:31;6.10;;;5.20;;
5135;SDS011;2586;48.710;9.202;2022-12-07T10:48:10;6.27;;;3.77;;
5135;SDS011;2586;48.710;9.202;2022-12-07T10:53:53;8.20;;;4.27;;
5135;SDS011;2586;48.710;9.202;2022-12-07T10:56:37;6.90;;;5.10;;
5135;SDS011;2586;48.710;9.202;2022-12-07T11:01:57;6.37;;;4.40;;
5135;SDS011;2586;48.710;9.202;2022-12-07T11:10:55;5.77;;;4.23;;
5135;SDS011;2586;48.710;9.202;2022-12-07T11:16:07;6.37;;;4.20;;
5135;SDS011;2586;48.710;9.202;2022-12-07T11:23:47;14.97;;;4.37;;
5135;SDS011;2586;48.710;9.202;2022-12-07T11:26:21;6.37;;;4.03;;
5135;SDS011;2586;48.710;9.202;2022-12-07T11:34:39;7.13;;;4.13;;
5135;SDS011;2586;48.710;9.202;2022-12-07T11:37:23;8.03;;;4.53;;
5135;SDS011;2586;48.710;9.202;2022-12-07T11:39:55;6.00;;;3.90;;
5135;SDS011;2586;48.710;9.202;2022-12-07T11:42:30;7.80;;;4.80;;
5135;SDS011;2586;48.710;9.202;2022-12-07T11:45:05;8.90;;;4.83;;
5135;SDS011;2586;48.710;9.202;2022-12-07T11:50:42;4.33;;;3.90;;
5135;SDS011;2586;48.710;9.202;2022-12-07T11:53:19;7.87;;;4.17;;
5135;SDS011;2586;48.710;9.202;2022-12-07T12:04:06;6.23;;;4.43;;
5135;SDS011;2586;48.710;9.202;2022-12-07T12:06:35;4.93;;;3.73;;
5135;SDS011;2586;48.710;9.202;2022-12-07T12:09:16;6.77;;;3.33;;
5135;SDS011;2586;48.710;9.202;2022-12-07T12:14:39;8.90;;;4.50;;
5135;SDS011;2586;48.710;9.202;2022-12-07T12:20:00;4.93;;;3.23;;
5135;SDS011;2586;48.710;9.202;2022-12-07T12:22:30;5.73;;;3.30;;
5135;SDS011;2586;48.710;9.202;2022-12-07T12:25:04;3.70;;;3.40;;
5135;SDS011;2586;48.710;9.202;2022-12-07T12:27:37;3.37;;;2.80;;
5135;SDS011;2586;48.710;9.202;2022-12-07T12:30:06;4.60;;;2.93;;
5135;SDS011;2586;48.710;9.202;2022-12-07T12:32:48;7.23;;;3.43;;
5135;SDS011;2586;48.710;9.202;2022-12-07T12:37:55;4.13;;;3.00;;
5135;SDS011;2586;48.710;9.202;2022-12-07T12:40:46;4.27;;;3.10;;
5135;SDS011;2586;48.710;9.202;2022-12-07T12:52:05;3.77;;;2.23;;
5135;SDS011;2586;48.710;9.202;2022-12-07T12:57:36;2.67;;;2.47;;
5135;SDS011;2586;48.710;9.202;2022-12-07T13:02:50;2.73;;;2.47;;
5135;SDS011;2586;48.710;9.202;2022-12-07T13:05:18;2.73;;;2.13;;
5135;SDS011;2586;48.710;9.202;2022-12-07T13:29:11;4.53;;;3.40;;
5135;SDS011;2586;48.710;9.202;2022-12-07T13:31:40;3.07;;;2.77;;
5135;SDS011;2586;48.710;9.202;2022-12-07T13:34:49;3.93;;;2.70;;
5135;SDS011;2586;48.710;9.202;2022-12-07T13:36:56;3.07;;;2.80;;
5135;SDS011;2586;48.710;9.202;2022-12-07T13:39:23;3.80;;;2.90;;
5135;SDS011;2586;48.710;9.202;2022-12-07T13:41:51;4.90;;;3.13;;
5135;SDS011;2586;48.710;9.202;2022-12-07T13:44:19;4.17;;;2.50;;
5135;SDS011;2586;48.710;9.202;2022-12-07T13:49:30;2.63;;;2.40;;
5135;SDS011;2586;48.710;9.202;2022-12-07T13:55:15;4.63;;;2.57;;
5135;SDS011;2586;48.710;9.202;2022-12-07T13:57:41;3.27;;;2.97;;
5135;SDS011;2586;48.710;9.202;2022-12-07T14:00:17;2.80;;;2.60;;
5135;SDS011;2586;48.710;9.202;2022-12-07T14:03:04;2.63;;;2.37;;
5135;SDS011;2586;48.710;9.202;2022-12-07T14:06:02;2.33;;;2.23;;
5135;SDS011;2586;48.710;9.202;2022-12-07T14:08:29;3.33;;;2.40;;
5135;SDS011;2586;48.710;9.202;2022-12-07T14:10:55;2.93;;;1.80;;
5135;SDS011;2586;48.710;9.202;2022-12-07T14:16:03;2.90;;;1.63;;
5135;SDS011;2586;48.710;9.202;2022-12-07T14:19:00;11.07;;;1.80;;
5135;SDS011;2586;48.710;9.202;2022-12-07T14:21:29;3.23;;;1.30;;
5135;SDS011;2586;48.710;9.202;2022-12-07T14:24:09;1.93;;;1.60;;
5135;SDS011;2586;48.710;9.202;2022-12-07T14:26:42;4.77;;;1.90;;
5135;SDS011;2586;48.710;9.202;2022-12-07T14:29:19;1.83;;;1.73;;
5135;SDS011;2586;48.710;9.202;2022-12-07T14:34:58;2.17;;;2.00;;
5135;SDS011;2586;48.710;9.202;2022-12-07T14:37:26;3.57;;;2.10;;
5135;SDS011;2586;48.710;9.202;2022-12-07T14:39:53;2.27;;;2.10;;
5135;SDS011;2586;48.710;9.202;2022-12-07T14:42:19;5.40;;;2.60;;
5135;SDS011;2586;48.710;9.202;2022-12-07T14:44:46;2.17;;;2.00;;
5135;SDS011;2586;48.710;9.202;2022-12-07T14:47:12;3.80;;;2.50;;
5135;SDS011;2586;48.710;9.202;2022-12-07T14:49:38;2.90;;;2.50;;
5135;SDS011;2586;48.710;9.202;2022-12-07T14:52:03;2.43;;;1.90;;
5135;SDS011;2586;48.710;9.202;2022-12-07T14:54:31;3.27;;;2.70;;
5135;SDS011;2586;48.710;9.202;2022-12-07T14:56:58;2.50;;;2.30;;
5135;SDS011;2586;48.710;9.202;2022-12-07T14:59:23;4.37;;;3.03;;
5135;SDS011;2586;48.710;9.202;2022-12-07T15:01:49;2.40;;;2.27;;
5135;SDS011;2586;48.710;9.202;2022-12-07T15:04:15;10.23;;;3.50;;
5135;SDS011;2586;48.710;9.202;2022-12-07T15:06:41;3.73;;;3.27;;
5135;SDS011;2586;48.710;9.202;2022-12-07T15:09:11;3.53;;;3.23;;
5135;SDS011;2586;48.710;9.202;2022-12-07T15:11:36;3.23;;;2.83;;
5135;SDS011;2586;48.710;9.202;2022-12-07T15:14:02;3.43;;;3.13;;
5135;SDS011;2586;48.710;9.202;2022-12-07T15:16:34;9.67;;;3.03;;
5135;SDS011;2586;48.710;9.202;2022-12-07T15:19:04;4.70;;;2.40;;
5135;SDS011;2586;48.710;9.202;2022-12-07T15:21:30;3.07;;;2.77;;
5135;SDS011;2586;48.710;9.202;2022-12-07T15:23:55;5.83;;;3.17;;
5135;SDS011;2586;48.710;9.202;2022-12-07T15:26:21;3.73;;;3.17;;
5135;SDS011;2586;48.710;9.202;2022-12-07T15:28:47;5.50;;;3.90;;
5135;SDS011;2586;48.710;9.202;2022-12-07T15:31:13;3.83;;;2.80;;
5135;SDS011;2586;48.710;9.202;2022-12-07T15:33:41;4.50;;;3.37;;
5135;SDS011;2586;48.710;9.202;2022-12-07T15:36:07;4.57;;;3.37;;
5135;SDS011;2586;48.710;9.202;2022-12-07T15:38:33;4.03;;;3.23;;
5135;SDS011;2586;48.710;9.202;2022-12-07T15:41:00;9.80;;;4.50;;
5135;SDS011;2586;48.710;9.202;2022-12-07T15:43:25;7.00;;;4.07;;
5135;SDS011;2586;48.710;9.202;2022-12-07T15:46:09;3.87;;;3.23;;
5135;SDS011;2586;48.710;9.202;2022-12-07T15:48:35;3.83;;;3.43;;
5135;SDS011;2586;48.710;9.202;2022-12-07T15:51:04;4.93;;;3.50;;
5135;SDS011;2586;48.710;9.202;2022-12-07T15:53:31;4.60;;;3.97;;
5135;SDS011;2586;48.710;9.202;2022-12-07T15:55:56;6.00;;;3.70;;
5135;SDS011;2586;48.710;9.202;2022-12-07T15:58:22;4.80;;;4.00;;
5135;SDS011;2586;48.710;9.202;2022-12-07T16:00:48;3.27;;;3.00;;
5135;SDS011;2586;48.710;9.202;2022-12-07T16:03:13;4.00;;;3.60;;
5135;SDS011;2586;48.710;9.202;2022-12-07T16:05:39;5.70;;;3.90;;
5135;SDS011;2586;48.710;9.202;2022-12-07T16:08:05;4.43;;;3.53;;
5135;SDS011;2586;48.710;9.202;2022-12-07T16:10:30;4.43;;;3.93;;
5135;SDS011;2586;48.710;9.202;2022-12-07T16:12:56;5.17;;;3.93;;
5135;SDS011;2586;48.710;9.202;2022-12-07T16:15:21;4.97;;;3.90;;
5135;SDS011;2586;48.710;9.202;2022-12-07T16:17:49;5.53;;;4.27;;
5135;SDS011;2586;48.710;9.202;2022-12-07T16:20:15;5.80;;;4.50;;
5135;SDS011;2586;48.710;9.202;2022-12-07T16:22:41;5.20;;;4.30;;
5135;SDS011;2586;48.710;9.202;2022-12-07T16:25:06;8.57;;;4.90;;
5135;SDS011;2586;48.710;9.202;2022-12-07T16:27:32;6.33;;;4.60;;
5135;SDS011;2586;48.710;9.202;2022-12-07T16:29:58;7.57;;;5.60;;
5135;SDS011;2586;48.710;9.202;2022-12-07T16:32:24;6.90;;;5.80;;
5135;SDS011;2586;48.710;9.202;2022-12-07T16:34:49;11.70;;;5.50;;
5135;SDS011;2586;48.710;9.202;2022-12-07T16:37:15;8.27;;;6.50;;
5135;SDS011;2586;48.710;9.202;2022-12-07T16:39:41;9.23;;;5.80;;
5135;SDS011;2586;48.710;9.202;2022-12-07T16:42:06;7.43;;;5.57;;
5135;SDS011;2586;48.710;9.202;2022-12-07T16:44:32;14.00;;;6.47;;
5135;SDS011;2586;48.710;9.202;2022-12-07T16:46:57;9.77;;;5.80;;
5135;SDS011;2586;48.710;9.202;2022-12-07T16:49:23;11.00;;;6.47;;
5135;SDS011;2586;48.710;9.202;2022-12-07T16:51:49;12.90;;;6.13;;
5135;SDS011;2586;48.710;9.202;2022-12-07T16:54:15;12.47;;;7.37;;
5135;SDS011;2586;48.710;9.202;2022-12-07T16:56:41;16.10;;;6.77;;
5135;SDS011;2586;48.710;9.202;2022-12-07T16:59:07;9.03;;;6.73;;
5135;SDS011;2586;48.710;9.202;2022-12-07T17:01:32;13.27;;;6.73;;
5135;SDS011;2586;48.710;9.202;2022-12-07T17:03:59;10.73;;;6.43;;
5135;SDS011;2586;48.710;9.202;2022-12-07T17:06:26;11.00;;;7.03;;
5135;SDS011;2586;48.710;9.202;2022-12-07T17:08:53;8.70;;;6.07;;
5135;SDS011;2586;48.710;9.202;2022-12-07T17:11:20;18.43;;;6.80;;
5135;SDS011;2586;48.710;9.202;2022-12-07T17:13:47;12.57;;;8.23;;
5135;SDS011;2586;48.710;9.202;2022-12-07T17:16:32;12.23;;;6.17;;
5135;SDS011;2586;48.710;9.202;2022-12-07T17:18:59;8.90;;;6.50;;
5135;SDS011;2586;48.710;9.202;2022-12-07T17:21:27;10.70;;;7.60;;
5135;SDS011;2586;48.710;9.202;2022-12-07T17:23:53;10.00;;;6.60;;
5135;SDS011;2586;48.710;9.202;2022-12-07T17:26:23;8.83;;;6.57;;
5135;SDS011;2586;48.710;9.202;2022-12-07T17:28:49;12.37;;;6.97;;
5135;SDS011;2586;48.710;9.202;2022-12-07T17:31:16;11.07;;;6.40;;